createdAt,value
2023-05-21T00:02:14.706Z,11.73
2023-05-21T00:04:44.331Z,11.45
2023-05-21T00:07:15.463Z,11.55
2023-05-21T00:09:45.094Z,10.32
2023-05-21T00:12:14.714Z,10.70
2023-05-21T00:14:46.893Z,11.20
2023-05-21T00:17:16.565Z,11.13
2023-05-21T00:19:46.437Z,11.05
2023-05-21T00:22:17.055Z,11.80
2023-05-21T00:24:47.222Z,11.27
2023-05-21T00:27:16.876Z,11.55
2023-05-21T00:29:49.064Z,10.95
2023-05-21T00:32:18.641Z,11.63
2023-05-21T00:34:48.247Z,11.10
2023-05-21T00:37:18.152Z,11.27
2023-05-21T00:39:47.780Z,11.20
2023-05-21T00:42:18.410Z,11.45
2023-05-21T00:44:50.626Z,11.02
2023-05-21T00:47:21.695Z,11.43
2023-05-21T00:49:51.754Z,10.73
2023-05-21T00:52:23.196Z,11.77
2023-05-21T00:54:53.026Z,10.90
2023-05-21T00:57:23.495Z,11.57
2023-05-21T00:59:56.360Z,11.18
2023-05-21T01:02:27.187Z,11.07
2023-05-21T01:04:57.362Z,10.68
2023-05-21T01:07:27.016Z,11.57
2023-05-21T01:09:56.788Z,11.07
2023-05-21T01:12:26.505Z,11.30
2023-05-21T01:14:59.541Z,11.57
2023-05-21T01:17:29.635Z,11.18
2023-05-21T01:19:59.723Z,11.77
2023-05-21T01:22:29.329Z,10.77
2023-05-21T01:25:03.066Z,10.90
2023-05-21T01:27:33.006Z,11.20
2023-05-21T01:30:02.589Z,11.00
2023-05-21T01:32:36.535Z,10.75
2023-05-21T01:35:08.278Z,11.02
2023-05-21T01:37:39.767Z,11.13
2023-05-21T01:40:14.820Z,10.95
2023-05-21T01:42:45.758Z,10.63
2023-05-21T01:45:15.488Z,11.10
2023-05-21T01:47:45.701Z,11.18
2023-05-21T01:50:15.389Z,10.98
2023-05-21T01:52:51.829Z,10.85
2023-05-21T01:55:25.538Z,11.05
2023-05-21T01:57:55.971Z,10.80
2023-05-21T02:00:27.094Z,11.88
2023-05-21T02:05:26.492Z,11.52
2023-05-21T02:07:56.127Z,11.07
2023-05-21T02:10:28.426Z,10.68
2023-05-21T02:12:58.051Z,10.57
2023-05-21T02:15:27.752Z,11.15
2023-05-21T02:17:58.589Z,11.07
2023-05-21T02:20:28.307Z,10.98
2023-05-21T02:22:57.945Z,10.85
2023-05-21T02:25:30.090Z,11.13
2023-05-21T02:27:59.744Z,11.23
2023-05-21T02:30:29.664Z,11.40
2023-05-21T02:32:59.379Z,10.90
2023-05-21T02:35:29.274Z,11.32
2023-05-21T02:37:59.621Z,10.90
2023-05-21T02:40:33.068Z,10.68
2023-05-21T02:43:02.738Z,10.75
2023-05-21T02:45:32.799Z,10.48
2023-05-21T02:48:02.486Z,10.73
2023-05-21T02:50:32.121Z,11.50
2023-05-21T02:53:02.138Z,10.82
2023-05-21T02:55:34.620Z,10.95
2023-05-21T02:58:04.343Z,10.60
2023-05-21T03:00:33.982Z,11.30
2023-05-21T03:03:03.736Z,11.77
2023-05-21T03:05:33.621Z,11.80
2023-05-21T03:08:03.725Z,11.40
2023-05-21T03:10:36.021Z,11.60
2023-05-21T03:13:09.606Z,10.63
2023-05-21T03:15:39.795Z,10.48
2023-05-21T03:18:09.553Z,11.38
2023-05-21T03:20:43.838Z,11.32
2023-05-21T03:23:16.411Z,11.35
2023-05-21T03:25:49.122Z,11.20
2023-05-21T03:28:18.724Z,11.43
2023-05-21T03:30:49.840Z,11.35
2023-05-21T03:33:20.066Z,11.32
2023-05-21T03:35:49.670Z,11.43
2023-05-21T03:38:19.264Z,11.05
2023-05-21T03:40:51.877Z,11.50
2023-05-21T03:43:21.539Z,11.43
2023-05-21T03:45:51.183Z,11.80
2023-05-21T03:48:21.022Z,11.15
2023-05-21T03:50:50.668Z,10.95
2023-05-21T03:53:20.291Z,11.45
2023-05-21T03:55:55.482Z,11.07
2023-05-21T03:58:25.277Z,11.32
2023-05-21T04:00:54.850Z,11.02
2023-05-21T04:03:24.615Z,11.18
2023-05-21T04:05:54.365Z,10.82
2023-05-21T04:08:24.080Z,11.50
2023-05-21T04:10:56.282Z,11.75
2023-05-21T04:13:25.976Z,11.38
2023-05-21T04:15:56.036Z,11.40
2023-05-21T04:18:26.191Z,11.13
2023-05-21T04:20:56.001Z,11.17
2023-05-21T04:23:26.095Z,11.45
2023-05-21T04:25:58.262Z,11.10
2023-05-21T04:28:28.992Z,11.38
2023-05-21T04:30:59.004Z,11.55
2023-05-21T04:33:28.837Z,11.38
2023-05-21T04:35:58.475Z,12.02
2023-05-21T04:38:28.066Z,11.65
2023-05-21T04:41:03.964Z,11.20
2023-05-21T04:43:33.572Z,11.15
2023-05-21T04:46:03.201Z,11.15
2023-05-21T04:48:32.793Z,11.23
2023-05-21T04:51:05.817Z,11.10
2023-05-21T04:53:36.011Z,11.23
2023-05-21T04:56:10.019Z,11.50
2023-05-21T04:58:40.777Z,11.27
2023-05-21T05:01:10.415Z,11.18
2023-05-21T05:03:40.105Z,11.20
2023-05-21T05:06:10.673Z,11.27
2023-05-21T05:08:40.285Z,10.90
2023-05-21T05:11:12.661Z,11.50
2023-05-21T05:13:42.674Z,11.30
2023-05-21T05:16:13.097Z,11.70
2023-05-21T05:18:42.801Z,11.57
2023-05-21T05:21:12.479Z,11.65
2023-05-21T05:23:42.101Z,11.18
2023-05-21T05:26:14.296Z,11.65
2023-05-21T05:28:43.942Z,11.00
2023-05-21T05:31:13.569Z,11.73
2023-05-21T05:33:43.317Z,10.93
2023-05-21T05:36:12.912Z,11.45
2023-05-21T05:38:42.790Z,10.80
2023-05-21T05:41:14.934Z,11.35
2023-05-21T05:43:44.541Z,11.00
2023-05-21T05:46:14.212Z,11.15
2023-05-21T05:48:43.854Z,11.48
2023-05-21T05:51:15.558Z,10.88
2023-05-21T05:53:45.155Z,11.18
2023-05-21T05:56:17.341Z,10.85
2023-05-21T05:58:46.970Z,11.05
2023-05-21T06:01:16.629Z,10.85
2023-05-21T06:03:47.553Z,10.73
2023-05-21T06:08:46.939Z,10.70
2023-05-21T06:11:19.837Z,10.73
2023-05-21T06:13:49.468Z,10.70
2023-05-21T06:16:19.102Z,10.35
2023-05-21T06:18:48.794Z,10.05
2023-05-21T06:21:18.408Z,10.52
2023-05-21T06:23:48.019Z,10.90
2023-05-21T06:26:20.325Z,10.18
2023-05-21T06:28:49.722Z,10.55
2023-05-21T06:31:19.129Z,10.20
2023-05-21T06:33:49.628Z,10.23
2023-05-21T06:36:19.380Z,10.30
2023-05-21T06:38:48.994Z,10.10
2023-05-21T06:41:21.250Z,10.70
2023-05-21T06:43:51.165Z,10.82
2023-05-21T06:46:21.190Z,10.07
2023-05-21T06:48:50.910Z,10.27
2023-05-21T06:51:20.709Z,10.25
2023-05-21T06:53:50.373Z,10.60
2023-05-21T06:56:22.733Z,10.60
2023-05-21T06:58:52.365Z,10.50
2023-05-21T07:01:22.614Z,10.20
2023-05-21T07:03:52.461Z,10.43
2023-05-21T07:06:22.403Z,9.98
2023-05-21T07:08:52.350Z,10.32
2023-05-21T07:11:28.847Z,10.05
2023-05-21T07:14:00.518Z,9.50
2023-05-21T07:16:30.306Z,9.82
2023-05-21T07:18:59.946Z,9.38
2023-05-21T07:21:29.586Z,9.43
2023-05-21T07:23:59.479Z,9.90
2023-05-21T07:26:31.701Z,9.45
2023-05-21T07:29:01.310Z,9.30
2023-05-21T07:31:30.994Z,9.48
2023-05-21T07:34:00.607Z,9.60
2023-05-21T07:36:31.280Z,10.00
2023-05-21T07:39:01.094Z,9.07
2023-05-21T07:41:33.390Z,9.57
2023-05-21T07:44:04.108Z,9.75
2023-05-21T07:46:33.751Z,9.70
2023-05-21T07:49:03.354Z,9.60
2023-05-21T07:51:32.957Z,9.75
2023-05-21T07:54:02.591Z,9.48
2023-05-21T07:56:35.191Z,9.43
2023-05-21T07:59:04.941Z,9.63
2023-05-21T08:01:34.619Z,9.15
2023-05-21T08:04:06.222Z,8.60
2023-05-21T08:06:37.742Z,9.68
2023-05-21T08:09:08.315Z,8.88
2023-05-21T08:11:40.702Z,9.05
2023-05-21T08:14:10.408Z,8.93
2023-05-21T08:16:40.055Z,8.57
2023-05-21T08:19:09.757Z,8.50
2023-05-21T08:21:39.363Z,8.95
2023-05-21T08:24:09.765Z,8.55
2023-05-21T08:26:41.961Z,8.68
2023-05-21T08:29:11.546Z,9.10
2023-05-21T08:31:41.748Z,9.00
2023-05-21T08:34:11.398Z,8.57
2023-05-21T08:36:43.612Z,8.45
2023-05-21T08:39:13.229Z,8.02
2023-05-21T08:41:49.903Z,8.52
2023-05-21T08:44:23.867Z,8.43
2023-05-21T08:49:26.991Z,8.30
2023-05-21T08:51:56.925Z,8.15
2023-05-21T08:54:28.195Z,8.75
2023-05-21T08:57:00.800Z,8.40
2023-05-21T09:02:00.414Z,8.18
2023-05-21T09:04:30.334Z,8.45
2023-05-21T09:07:02.980Z,8.43
2023-05-21T09:09:36.952Z,7.97
2023-05-21T09:12:10.462Z,7.50
2023-05-21T09:14:40.123Z,8.45
2023-05-21T09:17:09.749Z,7.80
2023-05-21T09:19:41.962Z,7.72
2023-05-21T09:22:11.582Z,8.00
2023-05-21T09:24:42.104Z,8.00
2023-05-21T09:27:14.262Z,7.43
2023-05-21T09:29:44.767Z,8.00
2023-05-21T09:32:14.362Z,8.20
2023-05-21T09:34:44.340Z,7.97
2023-05-21T09:37:26.685Z,8.60
2023-05-21T09:39:57.264Z,8.15
2023-05-21T09:42:29.451Z,8.00
2023-05-21T09:44:59.303Z,8.38
2023-05-21T09:47:28.961Z,7.90
2023-05-21T09:50:01.041Z,8.07
2023-05-21T09:52:30.706Z,7.72
2023-05-21T09:55:00.328Z,7.65
2023-05-21T09:57:32.515Z,7.75
2023-05-21T10:00:02.122Z,7.82
2023-05-21T10:02:31.763Z,7.78
2023-05-21T10:05:01.509Z,7.30
2023-05-21T10:07:31.128Z,7.85
2023-05-21T10:10:00.707Z,7.85
2023-05-21T10:12:33.448Z,7.03
2023-05-21T10:15:06.606Z,7.72
2023-05-21T10:17:36.246Z,7.30
2023-05-21T10:20:06.093Z,7.53
2023-05-21T10:22:35.726Z,7.93
2023-05-21T10:25:05.913Z,7.88
2023-05-21T10:27:38.198Z,8.07
2023-05-21T10:30:09.420Z,7.72
2023-05-21T10:32:39.226Z,7.90
2023-05-21T10:35:10.190Z,7.90
2023-05-21T10:37:39.769Z,7.57
2023-05-21T10:40:11.120Z,7.60
2023-05-21T10:43:23.814Z,7.38
2023-05-21T10:46:10.285Z,8.15
2023-05-21T10:48:47.683Z,7.88
2023-05-21T10:51:22.842Z,7.55
2023-05-21T10:54:06.949Z,7.18
2023-05-21T10:56:41.656Z,7.95
2023-05-21T11:01:53.088Z,7.50
2023-05-21T11:06:54.563Z,7.30
2023-05-21T11:09:24.198Z,8.00
2023-05-21T11:11:54.489Z,7.50
2023-05-21T11:14:40.180Z,7.80
2023-05-21T11:17:14.797Z,7.85
2023-05-21T11:19:45.333Z,8.10
2023-05-21T11:22:25.129Z,7.55
2023-05-21T11:24:54.865Z,8.02
2023-05-21T11:27:35.153Z,7.90
2023-05-21T11:30:10.278Z,7.97
2023-05-21T11:32:40.665Z,8.60
2023-05-21T11:35:11.010Z,8.57
2023-05-21T11:37:42.026Z,7.65
2023-05-21T11:40:26.448Z,7.82
2023-05-21T11:42:56.623Z,7.68
2023-05-21T11:45:31.571Z,8.00
2023-05-21T11:48:01.324Z,7.82
2023-05-21T11:50:34.100Z,7.90
2023-05-21T11:53:03.897Z,7.97
2023-05-21T11:55:33.488Z,8.02
2023-05-21T11:58:03.122Z,7.80
2023-05-21T12:00:35.576Z,7.88
2023-05-21T12:03:06.063Z,7.63
2023-05-21T12:05:47.257Z,7.68
2023-05-21T12:08:16.877Z,7.70
2023-05-21T12:10:46.507Z,7.78
2023-05-21T12:13:17.620Z,7.70
2023-05-21T12:15:49.853Z,7.50
2023-05-21T12:18:19.693Z,6.85
2023-05-21T12:20:49.594Z,7.27
2023-05-21T12:23:22.452Z,7.22
2023-05-21T12:25:52.366Z,7.15
2023-05-21T12:28:22.748Z,7.10
2023-05-21T12:30:54.955Z,7.40
2023-05-21T12:33:26.287Z,7.53
2023-05-21T12:35:56.796Z,7.18
2023-05-21T12:38:26.801Z,7.20
2023-05-21T12:40:56.424Z,7.15
2023-05-21T12:43:26.177Z,7.15
2023-05-21T12:45:58.412Z,7.28
2023-05-21T12:48:28.099Z,7.65
2023-05-21T12:50:57.717Z,7.10
2023-05-21T12:53:27.359Z,7.15
2023-05-21T12:55:58.077Z,6.90
2023-05-21T13:01:01.377Z,7.20
2023-05-21T13:03:31.959Z,7.45
2023-05-21T13:06:02.155Z,7.53
2023-05-21T13:08:34.565Z,7.20
2023-05-21T13:11:04.582Z,7.25
2023-05-21T13:13:34.180Z,7.22
2023-05-21T13:16:06.588Z,7.68
2023-05-21T13:18:36.230Z,7.47
2023-05-21T13:21:05.934Z,7.00
2023-05-21T13:23:35.557Z,6.95
2023-05-21T13:26:05.283Z,7.18
2023-05-21T13:28:35.015Z,7.85
2023-05-21T13:31:07.640Z,7.30
2023-05-21T13:33:37.489Z,7.00
2023-05-21T13:36:07.334Z,7.55
2023-05-21T13:38:36.949Z,6.80
2023-05-21T13:41:06.647Z,7.60
2023-05-21T13:43:36.268Z,6.72
2023-05-21T13:46:08.781Z,7.75
2023-05-21T13:48:38.398Z,7.32
2023-05-21T13:51:08.367Z,7.40
2023-05-21T13:53:37.993Z,7.38
2023-05-21T13:56:08.240Z,7.40
2023-05-21T13:58:40.617Z,7.28
2023-05-21T14:01:12.855Z,7.32
2023-05-21T14:03:42.572Z,7.60
2023-05-21T14:06:12.198Z,6.80
2023-05-21T14:08:41.843Z,6.90
2023-05-21T14:11:11.917Z,7.28
2023-05-21T14:13:41.585Z,7.00
2023-05-21T14:16:13.996Z,7.03
2023-05-21T14:18:43.856Z,6.80
2023-05-21T14:21:13.536Z,7.20
2023-05-21T14:23:43.120Z,7.45
2023-05-21T14:26:12.793Z,7.05
2023-05-21T14:28:42.374Z,7.20
2023-05-21T14:31:14.749Z,7.03
2023-05-21T14:33:44.358Z,7.18
2023-05-21T14:36:13.978Z,7.20
2023-05-21T14:38:43.617Z,7.25
2023-05-21T14:41:13.294Z,7.20
2023-05-21T14:43:42.893Z,7.32
2023-05-21T14:46:15.099Z,7.30
2023-05-21T14:48:46.787Z,7.07
2023-05-21T14:51:16.820Z,7.07
2023-05-21T14:53:46.429Z,6.95
2023-05-21T14:56:16.061Z,7.20
2023-05-21T14:58:45.701Z,7.22
2023-05-21T15:01:17.922Z,7.20
2023-05-21T15:03:47.651Z,7.50
2023-05-21T15:06:17.351Z,7.33
2023-05-21T15:08:46.940Z,6.95
2023-05-21T15:11:16.542Z,6.68
2023-05-21T15:13:46.561Z,7.20
2023-05-21T15:16:19.733Z,7.13
2023-05-21T15:18:50.540Z,6.82
2023-05-21T15:23:49.581Z,7.22
2023-05-21T15:26:19.177Z,7.20
2023-05-21T15:28:48.811Z,7.07
2023-05-21T15:31:21.115Z,7.05
2023-05-21T15:33:50.737Z,6.72
2023-05-21T15:36:20.332Z,7.60
2023-05-21T15:38:49.955Z,6.88
2023-05-21T15:41:19.536Z,6.63
2023-05-21T15:43:49.119Z,7.18
2023-05-21T15:46:21.312Z,7.47
2023-05-21T15:48:50.989Z,7.55
2023-05-21T15:51:21.148Z,6.78
2023-05-21T15:53:50.784Z,7.00
2023-05-21T15:56:21.954Z,7.07
2023-05-21T15:58:51.548Z,6.60
2023-05-21T16:01:23.805Z,6.75
2023-05-21T16:03:53.475Z,6.93
2023-05-21T16:06:23.121Z,7.22
2023-05-21T16:08:52.741Z,6.57
2023-05-21T16:11:22.449Z,6.60
2023-05-21T16:13:52.116Z,7.17
2023-05-21T16:16:24.879Z,7.07
2023-05-21T16:18:54.563Z,6.90
2023-05-21T16:21:24.281Z,6.40
2023-05-21T16:23:53.882Z,6.90
2023-05-21T16:26:23.551Z,6.90
2023-05-21T16:28:53.179Z,6.70
2023-05-21T16:31:25.596Z,6.72
2023-05-21T16:33:55.337Z,6.93
2023-05-21T16:36:24.944Z,6.50
2023-05-21T16:38:55.022Z,6.68
2023-05-21T16:41:24.605Z,7.07
2023-05-21T16:43:55.062Z,7.47
2023-05-21T16:46:27.266Z,6.70
2023-05-21T16:48:56.920Z,7.00
2023-05-21T16:51:26.489Z,7.10
2023-05-21T16:53:56.137Z,6.57
2023-05-21T16:56:27.345Z,7.13
2023-05-21T16:58:56.992Z,6.63
2023-05-21T17:01:29.243Z,6.90
2023-05-21T17:03:59.105Z,6.78
2023-05-21T17:06:28.843Z,6.95
2023-05-21T17:08:58.514Z,6.35
2023-05-21T17:11:28.221Z,6.90
2023-05-21T17:13:58.135Z,6.68
2023-05-21T17:16:30.417Z,6.50
2023-05-21T17:19:00.059Z,6.60
2023-05-21T17:21:29.742Z,6.65
2023-05-21T17:23:59.384Z,6.68
2023-05-21T17:26:28.993Z,6.95
2023-05-21T17:28:58.595Z,6.68
2023-05-21T17:31:32.159Z,6.80
2023-05-21T17:34:01.804Z,6.65
2023-05-21T17:36:32.373Z,6.53
2023-05-21T17:41:31.519Z,6.63
2023-05-21T17:44:01.153Z,7.30
2023-05-21T17:46:33.402Z,7.13
2023-05-21T17:49:03.114Z,7.18
2023-05-21T17:51:32.853Z,6.90
2023-05-21T17:54:02.439Z,7.40
2023-05-21T17:56:34.457Z,7.72
2023-05-21T17:59:04.336Z,7.05
2023-05-21T18:01:36.639Z,6.95
2023-05-21T18:04:09.136Z,7.50
2023-05-21T18:06:38.720Z,7.68
2023-05-21T18:09:10.667Z,7.30
2023-05-21T18:11:40.393Z,6.97
2023-05-21T18:14:10.020Z,7.63
2023-05-21T18:16:42.911Z,7.70
2023-05-21T18:19:13.197Z,8.10
2023-05-21T18:21:42.885Z,7.95
2023-05-21T18:24:12.467Z,8.40
2023-05-21T18:26:43.454Z,7.95
2023-05-21T18:29:14.396Z,8.93
2023-05-21T18:31:46.688Z,9.43
2023-05-21T18:34:17.543Z,8.70
2023-05-21T18:36:48.352Z,12.23
2023-05-21T18:39:18.016Z,10.63
2023-05-21T18:41:48.153Z,11.05
2023-05-21T18:44:19.811Z,10.70
2023-05-21T18:46:53.077Z,9.90
2023-05-21T18:49:23.361Z,9.63
2023-05-21T18:51:53.687Z,9.93
2023-05-21T18:54:23.335Z,9.07
2023-05-21T18:56:59.690Z,10.05
2023-05-21T18:59:29.341Z,9.50
2023-05-21T19:02:01.619Z,9.20
2023-05-21T19:04:31.428Z,8.10
2023-05-21T19:07:02.829Z,7.83
2023-05-21T19:09:32.444Z,7.70
2023-05-21T19:12:02.398Z,7.97
2023-05-21T19:14:32.023Z,7.40
2023-05-21T19:17:04.356Z,7.40
2023-05-21T19:19:34.097Z,7.28
2023-05-21T19:22:03.809Z,7.55
2023-05-21T19:24:33.455Z,7.38
2023-05-21T19:27:03.142Z,7.78
2023-05-21T19:29:32.809Z,7.35
2023-05-21T19:32:05.010Z,8.00
2023-05-21T19:34:34.672Z,8.13
2023-05-21T19:37:04.301Z,7.70
2023-05-21T19:39:36.863Z,8.10
2023-05-21T19:42:06.746Z,8.13
2023-05-21T19:44:36.331Z,8.00
2023-05-21T19:47:09.262Z,7.97
2023-05-21T19:49:38.889Z,7.88
2023-05-21T19:52:10.598Z,7.93
2023-05-21T19:54:40.153Z,8.63
2023-05-21T19:57:12.295Z,8.27
2023-05-21T19:59:42.154Z,8.15
2023-05-21T20:02:17.198Z,8.60
2023-05-21T20:04:46.814Z,8.35
2023-05-21T20:07:16.384Z,8.10
2023-05-21T20:09:45.996Z,9.00
2023-05-21T20:12:16.634Z,7.90
2023-05-21T20:14:46.969Z,8.65
2023-05-21T20:17:19.816Z,8.68
2023-05-21T20:19:50.038Z,8.05
2023-05-21T20:22:19.645Z,8.63
2023-05-21T20:24:49.285Z,8.98
2023-05-21T20:27:20.187Z,9.38
2023-05-21T20:29:49.808Z,9.00
2023-05-21T20:32:22.000Z,9.45
2023-05-21T20:35:02.903Z,9.40
2023-05-21T20:37:34.057Z,9.27
2023-05-21T20:40:04.324Z,9.90
2023-05-21T20:42:35.443Z,9.52
2023-05-21T20:45:05.217Z,9.35
2023-05-21T20:47:38.568Z,9.57
2023-05-21T20:50:09.140Z,10.20
2023-05-21T20:52:39.060Z,9.50
2023-05-21T20:55:10.662Z,9.37
2023-05-21T20:57:40.286Z,9.48
2023-05-21T21:00:12.955Z,9.65
2023-05-21T21:02:45.262Z,9.63
2023-05-21T21:05:16.537Z,9.93
2023-05-21T21:07:46.166Z,9.40
2023-05-21T21:10:15.853Z,10.00
2023-05-21T21:12:45.497Z,9.52
2023-05-21T21:15:15.297Z,9.82
2023-05-21T21:17:47.612Z,9.60
2023-05-21T21:20:18.708Z,10.02
2023-05-21T21:22:48.423Z,9.52
2023-05-21T21:25:18.476Z,9.68
2023-05-21T21:27:48.248Z,10.40
2023-05-21T21:30:17.991Z,10.40
2023-05-21T21:32:50.368Z,10.18
2023-05-21T21:35:20.049Z,9.80
2023-05-21T21:37:49.680Z,9.80
2023-05-21T21:40:19.308Z,10.35
2023-05-21T21:42:49.002Z,9.88
2023-05-21T21:45:18.712Z,9.77
2023-05-21T21:47:50.939Z,9.90
2023-05-21T21:50:20.816Z,9.80
2023-05-21T21:52:50.468Z,9.95
2023-05-21T21:55:20.146Z,9.90
2023-05-21T21:57:49.770Z,9.73
2023-05-21T22:00:21.093Z,10.55
2023-05-21T22:02:53.348Z,10.32
2023-05-21T22:05:22.992Z,9.80
2023-05-21T22:07:53.693Z,10.07
2023-05-21T22:10:23.514Z,10.23
2023-05-21T22:12:53.102Z,9.98
2023-05-21T22:15:24.552Z,11.35
2023-05-21T22:17:56.920Z,11.00
2023-05-21T22:20:29.399Z,10.15
2023-05-21T22:22:59.034Z,11.10
2023-05-21T22:25:28.686Z,10.98
2023-05-21T22:27:58.293Z,10.32
2023-05-21T22:30:27.940Z,10.40
2023-05-21T22:33:00.220Z,10.68
2023-05-21T22:35:29.881Z,10.70
2023-05-21T22:37:59.482Z,10.63
2023-05-21T22:40:29.155Z,11.20
2023-05-21T22:42:58.807Z,11.10
2023-05-21T22:45:28.700Z,10.60
2023-05-21T22:48:07.171Z,11.00
2023-05-21T22:50:38.704Z,10.77
2023-05-21T22:53:08.413Z,11.50
2023-05-21T22:55:38.002Z,11.18
2023-05-21T22:58:07.613Z,10.88
2023-05-21T23:00:37.272Z,10.73
2023-05-21T23:03:09.868Z,11.38
2023-05-21T23:05:39.651Z,10.60
2023-05-21T23:08:09.439Z,11.63
2023-05-21T23:10:39.244Z,10.73
2023-05-21T23:13:09.039Z,10.13
2023-05-21T23:15:39.710Z,10.95
2023-05-21T23:20:42.328Z,10.57
2023-05-21T23:23:12.199Z,10.93
2023-05-21T23:25:41.806Z,11.25
2023-05-21T23:30:41.431Z,10.65
2023-05-21T23:33:13.915Z,11.20
2023-05-21T23:35:43.668Z,11.45
2023-05-21T23:38:13.293Z,11.20
2023-05-21T23:40:43.579Z,11.20
2023-05-21T23:43:13.209Z,11.30
2023-05-21T23:45:43.362Z,11.73
2023-05-21T23:48:15.685Z,11.35
2023-05-21T23:50:45.558Z,11.27
2023-05-21T23:53:15.495Z,11.15
2023-05-21T23:55:45.150Z,11.60
2023-05-21T23:58:14.788Z,11.20
